메인 페이지
METAR-TAF:

METAR-TAF

공항 :

라르나카 국제공항

라르나카, 키프로스

위도: 34-53N, 경도: 033-38E, 고도: 2m

현재 날씨관측

예보는 10분 전, 09:30시(UTC)에 발표되었습니다.
15kt
온도 29°C
습도 55%
기압 1013 hPa
시정 10km 이상
고도 2500ft 상공 구름 조금

METAR: LCLK 200930Z 19015KT 9999 FEW025 29/19 Q1013 NOSIG

시각: 12:40 (09:40 UTC)

예보

예보는 4 시간 10분 전, 05:30시(UTC)에 발표되었습니다.
예보 대상 시간: 20일 06시부터 21일 06시까지 (UTC)
남남동6kt
시정 10km 이상
고도 2500ft 상공 구름 조금
전환 중
20일 07시부터 20일 10시까지 (UTC)
남남서18kt
전환 중
20일 17시부터 20일 20시까지 (UTC)
8kt

TAF: LCLK 200530Z 2006/2106 15006KT 9999 FEW025 BECMG 2007/2010 21018KT BECMG 2017/2020 27008KT

4,000개 이상의 공항 관측 자료 및 예보 (METAR 및 TAF 보고).

지도상에서 검색 가능한 기상관측소가 노란 점과 빨간 점으로 표시되어 있습니다.

기상관측소 명을 보려면 표시 위로 마우스를 이동하세요.

날씨 관측과 예보를 보려면 클릭하세요.

지도 변경 : 확대하려면 엑스 표시가 있는 녹색 버튼, 축소하려면 빼기 표시가 있는 녹색 버튼, 다음 페이지의 지도를 보려면 녹색 화살표를 클릭하세요.


METAR-TAF: